createdAt,value
2022-08-12T00:00:43.789Z,2.37
2022-08-12T00:03:04.583Z,2.10
2022-08-12T00:05:28.335Z,2.80
2022-08-12T00:07:51.652Z,2.47
2022-08-12T00:10:13.175Z,2.83
2022-08-12T00:12:34.290Z,2.40
2022-08-12T00:14:58.186Z,2.40
2022-08-12T00:17:20.608Z,2.67
2022-08-12T00:19:43.915Z,2.40
2022-08-12T00:22:05.176Z,2.30
2022-08-12T00:24:29.600Z,2.87
2022-08-12T00:26:50.810Z,2.37
2022-08-12T00:29:13.119Z,2.47
2022-08-12T00:31:34.159Z,2.80
2022-08-12T00:33:58.811Z,2.33
2022-08-12T00:36:34.762Z,2.37
2022-08-12T00:38:59.950Z,3.30
2022-08-12T00:41:22.709Z,2.70
2022-08-12T00:43:29.421Z,2.50
2022-08-12T00:45:53.374Z,2.83
2022-08-12T00:47:59.691Z,2.67
2022-08-12T00:50:04.831Z,2.23
2022-08-12T00:52:10.590Z,2.40
2022-08-12T00:54:14.522Z,2.33
2022-08-12T00:56:24.003Z,2.43
2022-08-12T00:58:30.190Z,2.80
2022-08-12T01:00:35.658Z,2.70
2022-08-12T01:02:41.975Z,2.30
2022-08-12T01:05:07.201Z,2.80
2022-08-12T01:07:31.048Z,2.70
2022-08-12T01:09:54.914Z,2.50
2022-08-12T01:12:01.709Z,2.83
2022-08-12T01:14:05.427Z,2.83
2022-08-12T01:16:12.233Z,2.20
2022-08-12T01:18:17.696Z,3.17
2022-08-12T01:20:41.139Z,2.50
2022-08-12T01:22:57.401Z,2.47
2022-08-12T01:25:09.981Z,2.50
2022-08-12T01:27:15.697Z,2.83
2022-08-12T01:29:32.541Z,3.27
2022-08-12T01:31:42.859Z,3.13
2022-08-12T01:34:00.080Z,2.83
2022-08-12T01:36:09.052Z,2.60
2022-08-12T01:38:15.145Z,2.93
2022-08-12T01:40:33.207Z,2.47
2022-08-12T01:42:48.399Z,3.57
2022-08-12T01:44:54.116Z,3.27
2022-08-12T01:47:19.390Z,3.03
2022-08-12T01:49:50.647Z,2.67
2022-08-12T01:52:21.692Z,2.70
2022-08-12T01:54:29.527Z,2.87
2022-08-12T01:56:44.181Z,2.40
2022-08-12T01:59:05.600Z,3.10
2022-08-12T02:01:16.987Z,2.70
2022-08-12T02:04:13.625Z,3.10
2022-08-12T02:06:45.118Z,2.80
2022-08-12T02:09:11.016Z,2.40
2022-08-12T02:11:23.704Z,3.20
2022-08-12T02:13:58.559Z,3.20
2022-08-12T02:16:11.964Z,2.77
2022-08-12T02:18:30.515Z,2.90
2022-08-12T02:20:51.724Z,3.13
2022-08-12T02:22:58.539Z,2.83
2022-08-12T02:25:15.726Z,3.43
2022-08-12T02:27:21.794Z,3.70
2022-08-12T02:29:27.053Z,2.73
2022-08-12T02:31:31.675Z,2.90
2022-08-12T02:33:35.745Z,3.03
2022-08-12T02:35:40.678Z,3.33
2022-08-12T02:37:45.705Z,2.60
2022-08-12T02:39:51.092Z,3.10
2022-08-12T02:42:10.482Z,2.53
2022-08-12T02:44:20.557Z,3.23
2022-08-12T02:46:31.092Z,3.30
2022-08-12T02:48:42.217Z,3.13
2022-08-12T02:50:50.442Z,3.20
2022-08-12T02:52:55.749Z,3.30
2022-08-12T02:55:04.942Z,3.50
2022-08-12T02:57:10.130Z,3.00
2022-08-12T02:59:18.667Z,2.83
2022-08-12T03:01:28.752Z,3.33
2022-08-12T03:03:38.739Z,3.00
2022-08-12T03:05:47.057Z,3.70
2022-08-12T03:07:56.217Z,2.83
2022-08-12T03:10:15.915Z,2.87
2022-08-12T03:12:22.941Z,3.03
2022-08-12T03:14:30.415Z,3.30
2022-08-12T03:16:36.856Z,3.80
2022-08-12T03:18:45.995Z,3.60
2022-08-12T03:20:55.569Z,3.03
2022-08-12T03:23:02.019Z,4.37
2022-08-12T03:25:08.723Z,2.63
2022-08-12T03:27:15.304Z,2.97
2022-08-12T03:29:21.097Z,3.20
2022-08-12T03:31:30.053Z,2.50
2022-08-12T03:33:43.858Z,3.50
2022-08-12T03:36:09.624Z,2.70
2022-08-12T03:38:16.510Z,3.47
2022-08-12T03:40:40.713Z,3.10
2022-08-12T03:43:07.214Z,3.87
2022-08-12T03:45:51.762Z,3.00
2022-08-12T03:48:19.535Z,3.03
2022-08-12T03:50:40.987Z,2.90
2022-08-12T03:53:10.042Z,3.47
2022-08-12T03:55:30.744Z,3.23
2022-08-12T03:57:52.174Z,3.30
2022-08-12T04:00:24.146Z,3.20
2022-08-12T04:02:30.245Z,2.50
2022-08-12T04:04:42.214Z,3.40
2022-08-12T04:06:47.406Z,3.57
2022-08-12T04:08:53.215Z,2.77
2022-08-12T04:11:14.918Z,3.30
2022-08-12T04:13:25.722Z,4.27
2022-08-12T04:15:33.036Z,3.27
2022-08-12T04:18:06.716Z,3.20
2022-08-12T04:20:11.676Z,3.67
2022-08-12T04:22:15.190Z,3.30
2022-08-12T04:24:25.102Z,3.27
2022-08-12T04:26:29.148Z,3.20
2022-08-12T04:28:33.063Z,2.97
2022-08-12T04:30:40.324Z,3.10
2022-08-12T04:32:44.726Z,4.20
2022-08-12T04:34:48.935Z,3.37
2022-08-12T04:36:53.852Z,3.10
2022-08-12T04:38:59.871Z,3.53
2022-08-12T04:41:06.224Z,2.50
2022-08-12T04:44:01.293Z,3.27
2022-08-12T04:45:34.788Z,3.27
2022-08-12T04:47:39.354Z,2.97
2022-08-12T04:49:46.353Z,3.03
2022-08-12T04:51:54.577Z,3.37
2022-08-12T04:54:03.220Z,3.13
2022-08-12T04:56:11.221Z,3.43
2022-08-12T04:58:16.008Z,3.00
2022-08-12T05:00:35.010Z,2.80
2022-08-12T05:02:39.999Z,3.70
2022-08-12T05:04:44.973Z,3.40
2022-08-12T05:06:49.236Z,3.60
2022-08-12T05:08:54.892Z,3.43
2022-08-12T05:10:59.813Z,3.33
2022-08-12T05:13:11.332Z,3.97
2022-08-12T05:15:21.261Z,3.27
2022-08-12T05:17:33.528Z,3.53
2022-08-12T05:19:39.467Z,2.67
2022-08-12T05:21:48.160Z,3.43
2022-08-12T05:23:52.462Z,3.40
2022-08-12T05:25:59.281Z,2.70
2022-08-12T05:28:06.099Z,2.67
2022-08-12T05:30:11.311Z,3.03
2022-08-12T05:32:20.591Z,3.30
2022-08-12T05:34:26.815Z,3.20
2022-08-12T05:36:33.733Z,3.37
2022-08-12T05:38:55.215Z,3.03
2022-08-12T05:40:59.201Z,3.17
2022-08-12T05:43:03.629Z,3.00
2022-08-12T05:45:10.711Z,2.87
2022-08-12T05:47:14.975Z,3.13
2022-08-12T05:49:18.972Z,2.50
2022-08-12T05:51:39.931Z,2.90
2022-08-12T05:53:45.267Z,3.00
2022-08-12T05:55:52.905Z,2.43
2022-08-12T05:57:57.560Z,2.90
2022-08-12T06:00:03.580Z,2.40
2022-08-12T06:02:13.772Z,2.10
2022-08-12T06:04:18.969Z,2.50
2022-08-12T06:06:27.584Z,3.13
2022-08-12T06:08:31.746Z,3.10
2022-08-12T06:10:39.849Z,2.83
2022-08-12T06:12:43.503Z,2.60
2022-08-12T06:14:48.735Z,2.03
2022-08-12T06:16:53.362Z,2.50
2022-08-12T06:18:59.872Z,1.77
2022-08-12T06:21:04.205Z,1.80
2022-08-12T06:23:07.702Z,1.30
2022-08-12T06:25:18.372Z,1.87
2022-08-12T06:27:22.207Z,1.67
2022-08-12T06:30:07.421Z,1.87
2022-08-12T06:31:53.594Z,1.63
2022-08-12T06:35:23.756Z,1.87
2022-08-12T06:36:29.567Z,1.53
2022-08-12T06:38:33.279Z,1.70
2022-08-12T06:40:54.325Z,2.00
2022-08-12T06:42:58.503Z,1.60
2022-08-12T06:45:02.474Z,1.90
2022-08-12T06:47:07.565Z,1.67
2022-08-12T06:49:13.427Z,1.57
2022-08-12T06:51:19.998Z,1.90
2022-08-12T06:53:26.978Z,1.27
2022-08-12T06:55:34.221Z,1.50
2022-08-12T06:58:07.276Z,1.37
2022-08-12T07:00:16.095Z,1.70
2022-08-12T07:02:22.870Z,1.47
2022-08-12T07:04:38.000Z,1.73
2022-08-12T07:06:42.950Z,1.53
2022-08-12T07:08:46.654Z,1.40
2022-08-12T07:10:59.306Z,1.67
2022-08-12T07:13:03.697Z,1.13
2022-08-12T07:15:08.876Z,1.37
2022-08-12T07:17:13.016Z,1.20
2022-08-12T07:19:17.347Z,1.20
2022-08-12T07:21:22.696Z,1.57
2022-08-12T07:23:26.487Z,1.30
2022-08-12T07:25:38.521Z,1.17
2022-08-12T07:27:46.881Z,1.60
2022-08-12T07:29:57.791Z,1.20
2022-08-12T07:32:09.781Z,1.50
2022-08-12T07:34:15.018Z,1.50
2022-08-12T07:36:22.639Z,1.50
2022-08-12T07:38:33.896Z,1.40
2022-08-12T07:40:37.994Z,2.07
2022-08-12T07:42:43.803Z,1.33
2022-08-12T07:44:51.906Z,1.80
2022-08-12T07:46:55.704Z,1.50
2022-08-12T07:49:02.180Z,1.70
2022-08-12T07:51:06.833Z,1.47
2022-08-12T07:53:13.632Z,1.53
2022-08-12T07:55:19.792Z,1.30
2022-08-12T07:57:23.514Z,1.20
2022-08-12T07:59:29.896Z,1.50
2022-08-12T08:01:34.675Z,1.60
2022-08-12T08:03:47.628Z,2.00
2022-08-12T08:05:53.192Z,1.50
2022-08-12T08:08:01.942Z,1.40
2022-08-12T08:10:11.000Z,1.43
2022-08-12T08:12:33.702Z,1.47
2022-08-12T08:14:37.835Z,1.87
2022-08-12T08:16:46.514Z,2.03
2022-08-12T08:18:53.695Z,1.57
2022-08-12T08:21:00.854Z,1.87
2022-08-12T08:23:08.107Z,2.47
2022-08-12T08:25:34.663Z,1.07
2022-08-12T08:27:49.702Z,1.50
2022-08-12T08:29:53.768Z,1.53
2022-08-12T08:32:01.728Z,1.57
2022-08-12T08:34:47.153Z,1.60
2022-08-12T08:36:31.234Z,1.40
2022-08-12T08:38:35.524Z,1.50
2022-08-12T08:40:59.004Z,1.37
2022-08-12T08:43:05.015Z,1.00
2022-08-12T08:45:13.138Z,1.20
2022-08-12T08:47:16.791Z,1.60
2022-08-12T08:49:23.075Z,1.57
2022-08-12T08:51:26.993Z,1.40
2022-08-12T08:53:31.633Z,1.30
2022-08-12T08:56:03.165Z,1.30
2022-08-12T08:58:01.062Z,1.53
2022-08-12T09:00:09.851Z,1.50
2022-08-12T09:02:19.305Z,1.07
2022-08-12T09:05:12.289Z,1.50
2022-08-12T09:09:14.597Z,1.60
2022-08-12T09:16:29.115Z,1.30
2022-08-12T09:18:35.265Z,1.53
2022-08-12T09:20:42.367Z,1.60
2022-08-12T09:22:49.411Z,1.27
2022-08-12T09:24:53.390Z,1.00
2022-08-12T09:27:00.289Z,1.30
2022-08-12T09:29:12.127Z,1.07
2022-08-12T09:32:07.563Z,1.23
2022-08-12T09:34:26.223Z,1.40
2022-08-12T09:36:09.777Z,1.30
2022-08-12T09:38:28.313Z,1.20
2022-08-12T09:41:02.475Z,1.40
2022-08-12T09:43:19.639Z,1.10
2022-08-12T09:45:24.638Z,1.27
2022-08-12T09:47:59.058Z,0.87
2022-08-12T09:50:05.982Z,1.13
2022-08-12T09:52:24.947Z,0.80
2022-08-12T09:54:36.299Z,1.17
2022-08-12T09:57:01.757Z,1.20
2022-08-12T09:59:08.282Z,1.00
2022-08-12T10:01:19.708Z,1.03
2022-08-12T10:03:31.846Z,0.90
2022-08-12T10:06:19.627Z,1.10
2022-08-12T10:08:10.710Z,0.97
2022-08-12T10:10:22.783Z,0.90
2022-08-12T10:13:07.386Z,1.10
2022-08-12T10:15:46.330Z,1.00
2022-08-12T10:18:05.909Z,1.33
2022-08-12T10:20:03.734Z,1.37
2022-08-12T10:22:17.206Z,1.23
2022-08-12T10:24:39.666Z,1.10
2022-08-12T10:27:05.663Z,1.03
2022-08-12T10:30:03.019Z,1.00
2022-08-12T10:32:19.943Z,1.20
2022-08-12T10:34:23.836Z,0.80
2022-08-12T10:36:40.035Z,1.10
2022-08-12T10:38:49.736Z,1.00
2022-08-12T10:41:21.148Z,1.20
2022-08-12T10:43:56.287Z,1.60
2022-08-12T10:46:02.463Z,1.17
2022-08-12T10:48:26.907Z,1.10
2022-08-12T10:51:02.097Z,0.90
2022-08-12T10:53:08.758Z,1.13
2022-08-12T10:55:14.825Z,1.63
2022-08-12T10:58:13.423Z,1.60
2022-08-12T11:00:31.147Z,1.13
2022-08-12T11:04:18.504Z,1.10
2022-08-12T11:04:49.475Z,1.23
2022-08-12T11:07:09.388Z,1.23
2022-08-12T11:09:55.911Z,1.70
2022-08-12T11:12:35.472Z,1.17
2022-08-12T11:14:49.026Z,1.10
2022-08-12T11:17:06.452Z,1.10
2022-08-12T11:19:10.136Z,1.60
2022-08-12T11:21:16.362Z,1.67
2022-08-12T11:23:25.555Z,0.90
2022-08-12T11:25:57.487Z,1.30
2022-08-12T11:28:04.279Z,1.50
2022-08-12T11:30:31.667Z,1.50
2022-08-12T11:32:38.821Z,1.37
2022-08-12T11:34:53.024Z,1.83
2022-08-12T11:37:01.205Z,1.50
2022-08-12T11:39:12.596Z,1.50
2022-08-12T11:41:16.163Z,1.00
2022-08-12T11:43:55.919Z,0.80
2022-08-12T11:45:57.790Z,1.50
2022-08-12T11:48:03.927Z,1.37
2022-08-12T11:50:11.797Z,1.10
2022-08-12T11:52:56.047Z,1.37
2022-08-12T11:54:51.065Z,1.33
2022-08-12T11:57:00.278Z,1.30
2022-08-12T12:02:01.567Z,2.07
2022-08-12T12:03:55.296Z,1.43
2022-08-12T12:06:00.553Z,1.13
2022-08-12T12:08:37.669Z,1.37
2022-08-12T12:10:28.410Z,1.57
2022-08-12T12:12:33.478Z,1.43
2022-08-12T12:14:40.068Z,1.37
2022-08-12T12:16:49.890Z,1.33
2022-08-12T12:18:54.732Z,1.50
2022-08-12T12:20:59.990Z,1.27
2022-08-12T12:23:05.010Z,1.33
2022-08-12T12:25:13.350Z,1.63
2022-08-12T12:27:20.634Z,1.53
2022-08-12T12:30:14.084Z,1.00
2022-08-12T12:32:14.400Z,1.57
2022-08-12T12:34:30.410Z,1.53
2022-08-12T12:36:34.373Z,1.80
2022-08-12T12:38:40.418Z,1.57
2022-08-12T12:40:50.581Z,1.57
2022-08-12T12:43:00.550Z,1.73
2022-08-12T12:45:19.704Z,1.50
2022-08-12T12:47:29.057Z,1.80
2022-08-12T12:49:34.482Z,1.43
2022-08-12T12:51:48.629Z,1.53
2022-08-12T12:54:09.920Z,1.13
2022-08-12T12:56:20.002Z,1.73
2022-08-12T12:58:40.086Z,2.00
2022-08-12T13:00:50.971Z,1.77
2022-08-12T13:02:57.177Z,1.50
2022-08-12T13:05:03.341Z,2.20
2022-08-12T13:07:15.503Z,1.80
2022-08-12T13:09:22.912Z,1.80
2022-08-12T13:11:41.273Z,1.60
2022-08-12T13:14:10.406Z,1.77
2022-08-12T13:16:21.716Z,1.50
2022-08-12T13:18:28.454Z,1.50
2022-08-12T13:20:38.058Z,1.70
2022-08-12T13:22:46.978Z,1.70
2022-08-12T13:24:56.519Z,2.13
2022-08-12T13:27:05.121Z,1.50
2022-08-12T13:29:11.649Z,1.10
2022-08-12T13:31:17.484Z,1.63
2022-08-12T13:33:25.124Z,1.97
2022-08-12T13:36:06.295Z,1.67
2022-08-12T13:38:04.650Z,1.57
2022-08-12T13:40:10.773Z,1.60
2022-08-12T13:42:17.015Z,1.90
2022-08-12T13:44:22.932Z,2.27
2022-08-12T13:46:28.926Z,2.30
2022-08-12T13:48:33.663Z,2.03
2022-08-12T13:50:42.174Z,2.20
2022-08-12T13:52:45.929Z,3.13
2022-08-12T13:55:06.338Z,2.80
2022-08-12T13:57:16.886Z,2.60
2022-08-12T13:59:24.673Z,2.40
2022-08-12T14:01:33.405Z,2.97
2022-08-12T14:03:51.265Z,2.90
2022-08-12T14:05:59.601Z,2.67
2022-08-12T14:08:06.206Z,2.20
2022-08-12T14:10:29.173Z,2.67
2022-08-12T14:12:53.958Z,2.67
2022-08-12T14:15:00.564Z,3.40
2022-08-12T14:17:10.745Z,3.90
2022-08-12T14:19:22.003Z,2.30
2022-08-12T14:21:30.401Z,2.57
2022-08-12T14:24:05.335Z,3.67
2022-08-12T14:26:19.986Z,3.50
2022-08-12T14:28:25.133Z,2.20
2022-08-12T14:30:30.580Z,2.43
2022-08-12T14:32:36.258Z,2.20
2022-08-12T14:34:40.267Z,2.70
2022-08-12T14:36:53.118Z,2.30
2022-08-12T14:38:57.151Z,2.50
2022-08-12T14:41:16.273Z,2.17
2022-08-12T14:43:22.006Z,2.50
2022-08-12T14:45:45.150Z,2.40
2022-08-12T14:47:58.360Z,2.20
2022-08-12T14:50:58.761Z,1.30
2022-08-12T14:53:50.780Z,1.53
2022-08-12T14:57:20.234Z,1.40
2022-08-12T14:59:58.267Z,1.47
2022-08-12T15:02:02.661Z,1.63
2022-08-12T15:04:11.280Z,1.93
2022-08-12T15:06:39.294Z,1.53
2022-08-12T15:08:43.123Z,1.90
2022-08-12T15:10:49.937Z,1.97
2022-08-12T15:13:00.252Z,2.10
2022-08-12T15:15:06.620Z,2.80
2022-08-12T15:17:37.977Z,4.60
2022-08-12T15:20:14.313Z,2.20
2022-08-12T15:22:35.557Z,3.90
2022-08-12T15:24:27.226Z,3.10
2022-08-12T15:26:40.800Z,3.23
2022-08-12T15:28:51.571Z,4.20
2022-08-12T15:30:59.889Z,4.20
2022-08-12T15:33:18.683Z,3.30
2022-08-12T15:35:24.413Z,4.40
2022-08-12T15:38:08.933Z,3.30
2022-08-12T15:40:01.178Z,3.43
2022-08-12T15:42:05.839Z,3.93
2022-08-12T15:44:38.232Z,3.70
2022-08-12T15:46:36.969Z,4.30
2022-08-12T15:48:43.380Z,3.23
2022-08-12T15:50:55.807Z,2.70
2022-08-12T15:53:13.769Z,2.87
2022-08-12T15:55:21.604Z,2.90
2022-08-12T15:57:25.218Z,3.20
2022-08-12T15:59:51.618Z,3.20
2022-08-12T16:01:55.430Z,3.80
2022-08-12T16:04:05.300Z,4.63
2022-08-12T16:06:36.236Z,4.60
2022-08-12T16:08:45.814Z,4.17
2022-08-12T16:10:53.267Z,4.27
2022-08-12T16:13:04.720Z,2.00
2022-08-12T16:15:11.246Z,2.33
2022-08-12T16:17:16.823Z,2.50
2022-08-12T16:20:03.566Z,2.30
2022-08-12T16:21:59.388Z,1.90
2022-08-12T16:24:04.841Z,2.30
2022-08-12T16:26:15.382Z,1.93
2022-08-12T16:28:28.174Z,3.00
2022-08-12T16:30:34.789Z,2.77
2022-08-12T16:32:52.886Z,2.40
2022-08-12T16:35:01.036Z,5.30
2022-08-12T16:37:07.844Z,5.83
2022-08-12T16:39:13.609Z,4.83
2022-08-12T16:41:22.445Z,4.20
2022-08-12T16:43:31.203Z,2.57
2022-08-12T16:46:05.214Z,2.30
2022-08-12T16:48:08.222Z,2.07
2022-08-12T16:50:35.981Z,2.47
2022-08-12T16:52:43.504Z,2.97
2022-08-12T16:54:48.098Z,3.43
2022-08-12T16:56:57.807Z,2.00
2022-08-12T16:59:02.809Z,2.47
2022-08-12T17:01:22.464Z,2.53
2022-08-12T17:03:35.297Z,2.37
2022-08-12T17:05:42.501Z,2.90
2022-08-12T17:07:52.806Z,2.43
2022-08-12T17:10:01.562Z,2.30
2022-08-12T17:12:06.166Z,2.40
2022-08-12T17:14:10.913Z,2.33
2022-08-12T17:16:18.157Z,2.60
2022-08-12T17:18:43.291Z,2.73
2022-08-12T17:20:56.542Z,2.63
2022-08-12T17:23:03.863Z,2.63
2022-08-12T17:25:17.809Z,2.50
2022-08-12T17:27:22.350Z,2.90
2022-08-12T17:30:01.151Z,3.13
2022-08-12T17:32:00.629Z,2.90
2022-08-12T17:34:17.420Z,3.43
2022-08-12T17:36:25.956Z,3.77
2022-08-12T17:38:35.056Z,3.60
2022-08-12T17:40:39.317Z,3.03
2022-08-12T17:42:47.589Z,3.53
2022-08-12T17:44:52.818Z,4.00
2022-08-12T17:46:57.957Z,3.27
2022-08-12T17:49:06.676Z,2.90
2022-08-12T17:51:24.634Z,3.73
2022-08-12T17:54:05.814Z,3.27
2022-08-12T17:56:01.237Z,3.80
2022-08-12T17:58:05.254Z,2.93
2022-08-12T18:00:14.386Z,3.20
2022-08-12T18:02:30.089Z,3.23
2022-08-12T18:04:36.304Z,3.60
2022-08-12T18:06:41.388Z,3.73
2022-08-12T18:08:58.631Z,3.43
2022-08-12T18:12:03.011Z,3.80
2022-08-12T18:13:44.266Z,4.13
2022-08-12T18:16:05.735Z,3.47
2022-08-12T18:18:17.400Z,3.67
2022-08-12T18:20:23.792Z,4.90
2022-08-12T18:22:39.520Z,4.53
2022-08-12T18:25:03.884Z,4.40
2022-08-12T18:27:29.920Z,4.20
2022-08-12T18:29:42.332Z,4.27
2022-08-12T18:31:59.842Z,4.70
2022-08-12T18:34:08.235Z,3.97
2022-08-12T18:36:22.602Z,4.40
2022-08-12T18:38:28.726Z,3.47
2022-08-12T18:40:54.462Z,3.13
2022-08-12T18:42:59.366Z,4.10
2022-08-12T18:45:04.422Z,3.60
2022-08-12T18:47:13.510Z,3.47
2022-08-12T18:49:22.626Z,3.67
2022-08-12T18:51:48.977Z,3.27
2022-08-12T18:54:07.069Z,3.40
2022-08-12T18:56:19.615Z,3.03
2022-08-12T18:58:59.293Z,3.30
2022-08-12T19:01:03.948Z,3.30
2022-08-12T19:03:38.597Z,3.60
2022-08-12T19:05:53.992Z,3.43
2022-08-12T19:08:01.986Z,3.50
2022-08-12T19:10:09.454Z,3.90
2022-08-12T19:12:33.599Z,3.37
2022-08-12T19:14:42.636Z,3.50
2022-08-12T19:16:50.993Z,4.17
2022-08-12T19:18:55.162Z,5.30
2022-08-12T19:21:06.458Z,4.07
2022-08-12T19:23:21.325Z,4.20
2022-08-12T19:25:59.304Z,3.80
2022-08-12T19:28:00.962Z,4.30
2022-08-12T19:30:09.292Z,4.50
2022-08-12T19:32:13.849Z,3.20
2022-08-12T19:34:56.007Z,4.40
2022-08-12T19:36:45.273Z,3.60
2022-08-12T19:38:56.745Z,4.40
2022-08-12T19:41:01.856Z,3.57
2022-08-12T19:43:17.878Z,3.70
2022-08-12T19:45:41.813Z,3.60
2022-08-12T19:47:48.548Z,3.90
2022-08-12T19:49:55.663Z,3.10
2022-08-12T19:52:03.473Z,3.43
2022-08-12T19:54:08.334Z,3.70
2022-08-12T19:56:17.429Z,4.73
2022-08-12T19:58:26.793Z,5.30
2022-08-12T20:00:31.912Z,4.50
2022-08-12T20:02:37.913Z,4.20
2022-08-12T20:04:49.351Z,6.50
2022-08-12T20:07:23.746Z,4.93
2022-08-12T20:09:38.696Z,4.30
2022-08-12T20:12:11.275Z,4.50
2022-08-12T20:14:10.735Z,5.20
2022-08-12T20:16:47.063Z,3.97
2022-08-12T20:18:44.671Z,4.37
2022-08-12T20:20:57.115Z,5.27
2022-08-12T20:23:00.950Z,3.07
2022-08-12T20:25:16.064Z,4.10
2022-08-12T20:27:29.268Z,4.47
2022-08-12T20:29:46.299Z,3.93
2022-08-12T20:31:52.568Z,3.50
2022-08-12T20:33:57.062Z,4.00
2022-08-12T20:36:13.688Z,3.37
2022-08-12T20:38:26.836Z,3.30
2022-08-12T20:40:32.230Z,4.13
2022-08-12T20:42:35.924Z,4.10
2022-08-12T20:44:43.358Z,3.70
2022-08-12T20:46:48.473Z,3.30
2022-08-12T20:48:54.913Z,3.17
2022-08-12T20:51:03.943Z,3.13
2022-08-12T20:53:14.026Z,2.83
2022-08-12T20:55:42.415Z,2.60
2022-08-12T20:58:02.199Z,3.00
2022-08-12T21:00:17.481Z,3.50
2022-08-12T21:02:30.330Z,2.73
2022-08-12T21:04:51.648Z,3.20
2022-08-12T21:07:04.430Z,2.60
2022-08-12T21:09:19.524Z,2.80
2022-08-12T21:11:26.185Z,3.00
2022-08-12T21:13:38.848Z,2.77
2022-08-12T21:15:54.698Z,2.70
2022-08-12T21:18:10.976Z,3.07
2022-08-12T21:20:30.991Z,2.70
2022-08-12T21:22:40.195Z,2.63
2022-08-12T21:24:46.558Z,3.60
2022-08-12T21:26:53.539Z,3.20
2022-08-12T21:29:01.414Z,3.40
2022-08-12T21:32:34.976Z,3.37
2022-08-12T21:33:31.570Z,3.50
2022-08-12T21:35:35.910Z,3.90
2022-08-12T21:37:44.104Z,3.40
2022-08-12T21:39:57.349Z,2.70
2022-08-12T21:42:05.411Z,3.03
2022-08-12T21:44:24.655Z,4.00
2022-08-12T21:46:40.148Z,3.03
2022-08-12T21:48:45.283Z,3.70
2022-08-12T21:50:53.297Z,3.43
2022-08-12T21:53:10.040Z,3.13
2022-08-12T21:55:17.205Z,2.83
2022-08-12T21:57:23.817Z,3.10
2022-08-12T21:59:28.339Z,2.70
2022-08-12T22:01:35.815Z,3.00
2022-08-12T22:04:24.374Z,2.97
2022-08-12T22:06:43.843Z,2.97
2022-08-12T22:08:48.900Z,3.07
2022-08-12T22:10:56.617Z,2.80
2022-08-12T22:13:01.432Z,2.70
2022-08-12T22:15:06.179Z,3.20
2022-08-12T22:17:11.657Z,3.40
2022-08-12T22:19:27.066Z,3.70
2022-08-12T22:21:31.607Z,3.13
2022-08-12T22:24:04.425Z,2.80
2022-08-12T22:26:05.588Z,2.83
2022-08-12T22:28:38.969Z,2.83
2022-08-12T22:31:03.667Z,3.70
2022-08-12T22:33:15.646Z,2.60
2022-08-12T22:35:55.464Z,3.10
2022-08-12T22:38:11.338Z,3.60
2022-08-12T22:40:14.885Z,2.90
2022-08-12T22:42:36.268Z,2.23
2022-08-12T22:44:56.897Z,3.00
2022-08-12T22:47:40.173Z,2.73
2022-08-12T22:49:53.611Z,2.37
2022-08-12T22:52:12.326Z,3.07
2022-08-12T22:54:36.838Z,3.50
2022-08-12T22:56:43.878Z,3.37
2022-08-12T22:58:50.769Z,2.60
2022-08-12T23:00:55.082Z,3.37
2022-08-12T23:03:02.721Z,2.70
2022-08-12T23:05:08.690Z,2.60
2022-08-12T23:07:15.780Z,2.70
2022-08-12T23:09:23.307Z,4.10
2022-08-12T23:11:33.649Z,2.87
2022-08-12T23:13:55.208Z,3.30
2022-08-12T23:16:04.227Z,3.37
2022-08-12T23:18:18.419Z,3.17
2022-08-12T23:20:27.057Z,2.90
2022-08-12T23:23:08.877Z,4.03
2022-08-12T23:24:58.750Z,3.13
2022-08-12T23:27:21.342Z,3.17
2022-08-12T23:29:29.384Z,3.77
2022-08-12T23:32:02.834Z,3.00
2022-08-12T23:34:07.634Z,2.93
2022-08-12T23:36:12.735Z,3.50
2022-08-12T23:38:31.531Z,2.77
2022-08-12T23:40:35.876Z,3.10
2022-08-12T23:42:44.092Z,3.30
2022-08-12T23:44:52.400Z,3.47
2022-08-12T23:46:59.280Z,2.80
2022-08-12T23:49:55.399Z,3.03
2022-08-12T23:51:32.213Z,3.30
2022-08-12T23:53:43.523Z,3.50
2022-08-12T23:55:47.621Z,3.00
2022-08-12T23:58:21.590Z,3.10
